createdAt,value
2022-09-28T00:00:42.122Z,8.10
2022-09-28T00:03:09.330Z,8.87
2022-09-28T00:05:35.798Z,7.80
2022-09-28T00:08:02.289Z,6.93
2022-09-28T00:10:28.758Z,7.00
2022-09-28T00:12:57.907Z,7.13
2022-09-28T00:15:24.821Z,7.13
2022-09-28T00:17:51.232Z,4.57
2022-09-28T00:20:18.169Z,4.10
2022-09-28T00:22:44.629Z,3.93
2022-09-28T00:25:11.108Z,4.63
2022-09-28T00:27:37.535Z,3.60
2022-09-28T00:30:05.342Z,4.03
2022-09-28T00:32:31.742Z,5.83
2022-09-28T00:34:58.212Z,4.80
2022-09-28T00:37:24.657Z,3.10
2022-09-28T00:39:51.086Z,3.10
2022-09-28T00:42:20.766Z,3.30
2022-09-28T00:44:48.549Z,3.13
2022-09-28T00:47:33.778Z,3.03
2022-09-28T00:50:06.911Z,3.30
2022-09-28T00:52:40.905Z,2.53
2022-09-28T00:55:09.711Z,2.63
2022-09-28T00:57:36.795Z,2.00
2022-09-28T01:00:04.680Z,2.10
2022-09-28T01:02:31.414Z,2.40
2022-09-28T01:04:58.928Z,3.17
2022-09-28T01:07:25.897Z,2.27
2022-09-28T01:09:54.758Z,2.23
2022-09-28T01:12:21.184Z,2.40
2022-09-28T01:14:48.068Z,3.30
2022-09-28T01:17:20.999Z,2.57
2022-09-28T01:19:51.420Z,2.00
2022-09-28T01:22:17.793Z,2.10
2022-09-28T01:24:48.726Z,3.27
2022-09-28T01:27:15.176Z,4.33
2022-09-28T01:29:44.786Z,2.00
2022-09-28T01:32:22.466Z,1.90
2022-09-28T01:34:51.948Z,1.90
2022-09-28T01:37:19.938Z,2.47
2022-09-28T01:39:48.813Z,2.03
2022-09-28T01:42:24.590Z,2.10
2022-09-28T01:44:51.896Z,2.50
2022-09-28T01:47:20.333Z,4.17
2022-09-28T01:49:53.987Z,2.60
2022-09-28T01:52:24.629Z,4.10
2022-09-28T01:54:53.602Z,2.10
2022-09-28T01:57:28.996Z,2.83
2022-09-28T02:00:04.945Z,4.47
2022-09-28T02:02:34.134Z,3.17
2022-09-28T02:05:21.584Z,2.57
2022-09-28T02:07:51.445Z,3.07
2022-09-28T02:10:24.012Z,3.27
2022-09-28T02:12:52.498Z,2.50
2022-09-28T02:15:28.099Z,2.37
2022-09-28T02:17:54.709Z,1.73
2022-09-28T02:20:21.826Z,2.20
2022-09-28T02:22:50.151Z,1.73
2022-09-28T02:25:31.378Z,3.67
2022-09-28T02:28:02.062Z,1.97
2022-09-28T02:30:32.503Z,1.90
2022-09-28T02:33:19.126Z,2.27
2022-09-28T02:35:45.776Z,3.00
2022-09-28T02:38:12.825Z,1.50
2022-09-28T02:40:39.606Z,2.10
2022-09-28T02:43:25.369Z,2.47
2022-09-28T02:45:52.079Z,1.60
2022-09-28T02:48:43.620Z,1.93
2022-09-28T02:51:11.368Z,3.10
2022-09-28T02:53:50.146Z,2.43
2022-09-28T02:56:29.306Z,1.70
2022-09-28T02:59:13.128Z,2.57
2022-09-28T03:01:54.873Z,2.17
2022-09-28T03:04:24.144Z,2.23
2022-09-28T03:06:56.104Z,2.83
2022-09-28T03:09:29.264Z,3.60
2022-09-28T03:11:58.603Z,2.37
2022-09-28T03:14:25.277Z,2.90
2022-09-28T03:16:51.798Z,4.07
2022-09-28T03:19:20.892Z,3.40
2022-09-28T03:21:47.302Z,2.60
2022-09-28T03:24:13.729Z,3.33
2022-09-28T03:26:40.268Z,2.20
2022-09-28T03:29:06.755Z,3.53
2022-09-28T03:31:33.230Z,4.07
2022-09-28T03:33:59.708Z,2.20
2022-09-28T03:36:26.229Z,2.93
2022-09-28T03:38:55.548Z,3.20
2022-09-28T03:41:23.705Z,3.23
2022-09-28T03:43:50.111Z,2.20
2022-09-28T03:46:16.606Z,2.37
2022-09-28T03:48:43.140Z,2.10
2022-09-28T03:51:10.274Z,3.37
2022-09-28T03:53:37.037Z,4.30
2022-09-28T03:56:13.659Z,4.10
2022-09-28T03:58:40.169Z,3.87
2022-09-28T04:01:16.506Z,3.47
2022-09-28T04:03:44.217Z,2.90
2022-09-28T04:06:10.819Z,4.10
2022-09-28T04:08:37.287Z,3.23
2022-09-28T04:11:03.738Z,2.63
2022-09-28T04:13:30.636Z,2.43
2022-09-28T04:15:58.666Z,2.73
2022-09-28T04:18:25.539Z,3.27
2022-09-28T04:21:04.677Z,8.23
2022-09-28T04:23:31.310Z,33.30
2022-09-28T04:25:57.848Z,6.57
2022-09-28T04:28:43.163Z,2.60
2022-09-28T04:31:10.928Z,2.13
2022-09-28T04:33:37.599Z,2.53
2022-09-28T04:36:04.276Z,2.90
2022-09-28T04:38:48.852Z,3.10
2022-09-28T04:41:17.114Z,2.70
2022-09-28T04:43:43.950Z,2.67
2022-09-28T04:46:10.602Z,2.33
2022-09-28T04:48:37.478Z,2.93
2022-09-28T04:51:03.897Z,2.47
2022-09-28T04:53:30.619Z,2.37
2022-09-28T04:55:59.698Z,2.17
2022-09-28T04:58:26.551Z,5.60
2022-09-28T05:00:53.442Z,6.47
2022-09-28T05:03:21.079Z,3.83
2022-09-28T05:05:48.068Z,3.17
2022-09-28T05:08:14.555Z,2.33
2022-09-28T05:10:41.028Z,2.30
2022-09-28T05:13:07.967Z,4.50
2022-09-28T05:15:35.211Z,3.40
2022-09-28T05:18:01.851Z,3.50
2022-09-28T05:20:28.263Z,3.53
2022-09-28T05:22:54.659Z,2.83
2022-09-28T05:25:21.413Z,2.60
2022-09-28T05:27:48.005Z,3.10
2022-09-28T05:30:14.532Z,3.07
2022-09-28T05:32:41.507Z,3.23
2022-09-28T05:35:08.259Z,3.23
2022-09-28T05:37:36.417Z,2.70
2022-09-28T05:40:03.729Z,9.40
2022-09-28T05:42:30.486Z,36.40
2022-09-28T05:44:59.047Z,62.87
2022-09-28T05:47:26.178Z,9.27
2022-09-28T05:49:53.020Z,3.60
2022-09-28T05:52:19.536Z,3.27
2022-09-28T05:54:46.147Z,3.60
2022-09-28T05:57:15.239Z,7.23
2022-09-28T05:59:41.652Z,5.03
2022-09-28T06:02:10.101Z,5.93
2022-09-28T06:04:36.662Z,6.43
2022-09-28T06:07:03.106Z,8.20
2022-09-28T06:09:30.169Z,10.67
2022-09-28T06:12:00.749Z,8.23
2022-09-28T06:14:27.142Z,9.27
2022-09-28T06:16:53.639Z,8.53
2022-09-28T06:19:20.112Z,9.77
2022-09-28T06:21:47.425Z,10.47
2022-09-28T06:24:13.939Z,9.57
2022-09-28T06:26:40.376Z,9.87
2022-09-28T06:29:06.867Z,9.67
2022-09-28T06:31:33.617Z,8.13
2022-09-28T06:34:02.125Z,7.70
2022-09-28T06:36:29.318Z,8.30
2022-09-28T06:38:55.796Z,6.30
2022-09-28T06:41:22.354Z,5.70
2022-09-28T06:43:48.885Z,4.67
2022-09-28T06:46:15.362Z,7.13
2022-09-28T06:48:41.844Z,12.17
2022-09-28T06:51:08.354Z,3.60
2022-09-28T06:53:35.878Z,3.53
2022-09-28T06:56:02.686Z,3.63
2022-09-28T06:58:29.262Z,3.30
2022-09-28T07:00:58.745Z,3.70
2022-09-28T07:03:25.450Z,3.70
2022-09-28T07:05:53.988Z,7.13
2022-09-28T07:08:21.423Z,7.23
2022-09-28T07:10:48.734Z,7.83
2022-09-28T07:13:39.079Z,7.03
2022-09-28T07:16:02.745Z,11.40
2022-09-28T07:18:29.981Z,10.03
2022-09-28T07:20:59.623Z,15.03
2022-09-28T07:23:27.600Z,12.17
2022-09-28T07:25:54.329Z,9.87
2022-09-28T07:28:21.790Z,10.33
2022-09-28T07:30:48.484Z,12.20
2022-09-28T07:33:16.028Z,11.87
2022-09-28T07:35:50.857Z,10.17
2022-09-28T07:38:17.292Z,11.57
2022-09-28T07:41:02.357Z,10.80
2022-09-28T07:43:28.874Z,8.80
2022-09-28T07:45:55.859Z,9.23
2022-09-28T07:48:22.740Z,7.70
2022-09-28T07:50:52.845Z,7.50
2022-09-28T07:53:20.261Z,7.97
2022-09-28T07:55:54.115Z,6.03
2022-09-28T07:58:20.782Z,5.70
2022-09-28T08:00:48.348Z,7.27
2022-09-28T08:03:18.719Z,5.97
2022-09-28T08:05:45.787Z,4.20
2022-09-28T08:08:12.592Z,3.70
2022-09-28T08:10:42.411Z,5.13
2022-09-28T08:13:10.882Z,4.20
2022-09-28T08:15:38.291Z,3.87
2022-09-28T08:18:05.370Z,3.00
2022-09-28T08:20:51.587Z,3.73
2022-09-28T08:23:18.435Z,2.77
2022-09-28T08:25:49.159Z,3.07
2022-09-28T08:28:17.746Z,3.10
2022-09-28T08:30:45.287Z,3.30
2022-09-28T08:33:15.518Z,3.13
2022-09-28T08:35:42.167Z,3.23
2022-09-28T08:38:08.900Z,3.50
2022-09-28T08:40:40.224Z,3.50
2022-09-28T08:43:23.008Z,3.73
2022-09-28T08:45:50.550Z,4.87
2022-09-28T08:48:38.664Z,3.00
2022-09-28T08:51:18.261Z,3.83
2022-09-28T08:53:48.396Z,3.53
2022-09-28T08:56:18.446Z,3.50
2022-09-28T08:58:48.279Z,3.87
2022-09-28T09:01:18.991Z,7.60
2022-09-28T09:03:47.366Z,3.80
2022-09-28T09:06:18.194Z,3.17
2022-09-28T09:08:50.180Z,3.50
2022-09-28T09:11:22.790Z,3.13
2022-09-28T09:14:11.760Z,3.10
2022-09-28T09:16:47.346Z,3.53
2022-09-28T09:19:20.357Z,3.93
2022-09-28T09:21:49.760Z,2.50
2022-09-28T09:24:16.219Z,2.50
2022-09-28T09:26:43.259Z,2.20
2022-09-28T09:29:20.913Z,2.73
2022-09-28T09:31:59.599Z,3.53
2022-09-28T09:34:33.529Z,3.23
2022-09-28T09:37:07.117Z,3.10
2022-09-28T09:39:46.951Z,2.87
2022-09-28T09:42:19.763Z,4.13
2022-09-28T09:44:57.576Z,4.83
2022-09-28T09:47:32.442Z,2.60
2022-09-28T09:50:06.813Z,3.13
2022-09-28T09:52:46.800Z,3.97
2022-09-28T09:55:29.835Z,3.87
2022-09-28T09:58:10.021Z,3.87
2022-09-28T10:00:41.153Z,6.87
2022-09-28T10:03:13.011Z,4.17
2022-09-28T10:05:43.097Z,3.63
2022-09-28T10:08:09.479Z,2.70
2022-09-28T10:10:49.607Z,3.27
2022-09-28T10:13:16.033Z,3.80
2022-09-28T10:15:42.628Z,2.87
2022-09-28T10:18:14.107Z,3.63
2022-09-28T10:20:42.256Z,3.73
2022-09-28T10:23:23.337Z,4.13
2022-09-28T10:25:52.232Z,3.67
2022-09-28T10:28:22.688Z,3.50
2022-09-28T10:30:49.436Z,3.37
2022-09-28T10:33:32.630Z,4.00
2022-09-28T10:36:00.302Z,3.23
2022-09-28T10:38:28.061Z,3.57
2022-09-28T10:40:55.896Z,3.40
2022-09-28T10:43:24.672Z,3.57
2022-09-28T10:46:03.363Z,3.23
2022-09-28T10:48:31.292Z,6.73
2022-09-28T10:50:59.306Z,12.70
2022-09-28T10:53:26.017Z,4.93
2022-09-28T10:55:59.328Z,5.93
2022-09-28T10:58:27.676Z,7.73
2022-09-28T11:00:59.823Z,4.83
2022-09-28T11:03:27.879Z,2.90
2022-09-28T11:05:55.476Z,3.53
2022-09-28T11:08:25.242Z,3.23
2022-09-28T11:11:02.005Z,2.87
2022-09-28T11:13:29.153Z,5.03
2022-09-28T11:15:55.620Z,3.57
2022-09-28T11:18:24.959Z,3.93
2022-09-28T11:20:51.411Z,3.40
2022-09-28T11:23:20.691Z,3.17
2022-09-28T11:25:59.143Z,3.83
2022-09-28T11:28:28.800Z,3.53
2022-09-28T11:30:55.458Z,3.93
2022-09-28T11:33:29.143Z,4.53
2022-09-28T11:36:07.808Z,3.70
2022-09-28T11:38:57.405Z,3.70
2022-09-28T11:41:44.135Z,4.20
2022-09-28T11:44:22.072Z,6.23
2022-09-28T11:47:00.343Z,4.23
2022-09-28T11:49:30.844Z,3.47
2022-09-28T11:51:59.287Z,5.40
2022-09-28T11:54:38.727Z,3.40
2022-09-28T11:57:06.396Z,3.60
2022-09-28T11:59:48.939Z,3.47
2022-09-28T12:02:41.602Z,3.30
2022-09-28T12:05:19.891Z,3.87
2022-09-28T12:07:50.060Z,4.27
2022-09-28T12:10:19.866Z,3.20
2022-09-28T12:13:01.520Z,5.00
2022-09-28T12:16:07.431Z,3.00
2022-09-28T12:18:38.989Z,2.77
2022-09-28T12:21:12.270Z,3.00
2022-09-28T12:23:41.702Z,3.17
2022-09-28T12:26:18.591Z,3.43
2022-09-28T12:28:50.046Z,3.33
2022-09-28T12:31:20.414Z,3.57
2022-09-28T12:33:48.817Z,4.27
2022-09-28T12:36:41.570Z,4.37
2022-09-28T12:39:56.558Z,2.90
2022-09-28T12:42:44.368Z,5.20
2022-09-28T12:45:30.996Z,2.57
2022-09-28T12:48:20.355Z,3.03
2022-09-28T12:50:57.206Z,2.90
2022-09-28T12:53:24.264Z,6.10
2022-09-28T12:56:11.894Z,3.80
2022-09-28T12:58:43.827Z,2.80
2022-09-28T13:01:19.816Z,2.60
2022-09-28T13:04:04.701Z,2.97
2022-09-28T13:06:34.341Z,2.40
2022-09-28T13:09:06.144Z,2.87
2022-09-28T13:11:34.107Z,2.87
2022-09-28T13:14:21.235Z,3.03
2022-09-28T13:16:47.786Z,3.17
2022-09-28T13:19:24.223Z,4.03
2022-09-28T13:22:16.023Z,3.83
2022-09-28T13:24:44.502Z,2.17
2022-09-28T13:27:14.795Z,2.30
2022-09-28T13:29:42.058Z,2.37
2022-09-28T13:32:11.443Z,4.40
2022-09-28T13:34:38.638Z,3.73
2022-09-28T13:37:31.402Z,2.67
2022-09-28T13:39:59.049Z,2.30
2022-09-28T13:42:44.317Z,4.37
2022-09-28T13:45:23.017Z,5.07
2022-09-28T13:47:58.080Z,2.67
2022-09-28T13:50:25.754Z,4.23
2022-09-28T13:53:12.616Z,5.87
2022-09-28T13:55:39.265Z,3.60
2022-09-28T13:58:15.121Z,5.97
2022-09-28T14:00:48.649Z,2.90
2022-09-28T14:03:46.290Z,3.67
2022-09-28T14:06:44.134Z,7.53
2022-09-28T14:09:16.021Z,2.27
2022-09-28T14:11:58.871Z,2.40
2022-09-28T14:14:45.724Z,2.77
2022-09-28T14:17:21.129Z,2.50
2022-09-28T14:19:55.514Z,3.53
2022-09-28T14:22:40.369Z,4.67
2022-09-28T14:25:25.339Z,5.60
2022-09-28T14:28:10.785Z,4.60
2022-09-28T14:30:42.912Z,5.63
2022-09-28T14:33:22.196Z,4.60
2022-09-28T14:35:58.950Z,3.83
2022-09-28T14:38:47.159Z,20.93
2022-09-28T14:41:17.809Z,7.03
2022-09-28T14:43:44.358Z,12.93
2022-09-28T14:46:17.488Z,6.27
2022-09-28T14:48:44.046Z,3.37
2022-09-28T14:51:33.320Z,4.07
2022-09-28T14:54:02.297Z,3.23
2022-09-28T14:56:32.794Z,7.57
2022-09-28T14:59:00.224Z,4.67
2022-09-28T15:01:26.781Z,3.77
2022-09-28T15:03:56.761Z,4.60
2022-09-28T15:06:24.167Z,4.57
2022-09-28T15:08:51.129Z,5.27
2022-09-28T15:11:23.355Z,7.20
2022-09-28T15:13:53.398Z,7.60
2022-09-28T15:16:23.580Z,3.37
2022-09-28T15:19:02.674Z,4.60
2022-09-28T15:21:36.597Z,4.73
2022-09-28T15:24:03.155Z,2.73
2022-09-28T15:26:31.151Z,5.23
2022-09-28T15:28:58.043Z,20.43
2022-09-28T15:31:26.467Z,42.67
2022-09-28T15:34:11.615Z,10.73
2022-09-28T15:36:39.694Z,6.37
2022-09-28T15:39:07.485Z,6.13
2022-09-28T15:41:34.301Z,3.50
2022-09-28T15:44:12.917Z,4.37
2022-09-28T15:46:48.738Z,6.60
2022-09-28T15:49:25.882Z,6.17
2022-09-28T15:51:53.729Z,4.80
2022-09-28T15:54:24.385Z,5.83
2022-09-28T15:56:55.451Z,5.13
2022-09-28T15:59:25.898Z,5.27
2022-09-28T16:02:07.495Z,4.90
2022-09-28T16:04:36.500Z,7.80
2022-09-28T16:07:12.480Z,14.80
2022-09-28T16:09:58.713Z,9.77
2022-09-28T16:12:31.909Z,31.93
2022-09-28T16:14:59.812Z,27.97
2022-09-28T16:17:32.571Z,13.10
2022-09-28T16:20:01.311Z,19.53
2022-09-28T16:22:29.011Z,50.67
2022-09-28T16:24:58.522Z,18.53
2022-09-28T16:27:28.655Z,15.60
2022-09-28T16:30:10.569Z,18.40
2022-09-28T16:32:41.961Z,26.97
2022-09-28T16:35:08.820Z,48.03
2022-09-28T16:37:35.548Z,16.13
2022-09-28T16:40:02.221Z,12.43
2022-09-28T16:42:29.039Z,22.43
2022-09-28T16:44:56.576Z,21.00
2022-09-28T16:47:23.933Z,15.20
2022-09-28T16:49:51.980Z,15.17
2022-09-28T16:52:38.876Z,10.83
2022-09-28T16:58:05.073Z,15.33
2022-09-28T17:00:33.170Z,12.90
2022-09-28T17:03:00.420Z,18.03
2022-09-28T17:05:27.423Z,16.93
2022-09-28T17:08:04.143Z,19.53
2022-09-28T17:11:02.185Z,14.57
2022-09-28T17:13:31.564Z,24.03
2022-09-28T17:15:59.268Z,25.43
2022-09-28T17:18:25.931Z,30.00
2022-09-28T17:20:55.348Z,43.13
2022-09-28T17:23:22.036Z,34.97
2022-09-28T17:25:48.897Z,36.93
2022-09-28T17:28:20.794Z,37.17
2022-09-28T17:30:47.701Z,32.00
2022-09-28T17:33:14.723Z,28.40
2022-09-28T17:35:42.426Z,32.80
2022-09-28T17:38:13.109Z,21.03
2022-09-28T17:40:40.018Z,17.73
2022-09-28T17:43:07.105Z,10.33
2022-09-28T17:45:39.475Z,9.00
2022-09-28T17:48:06.622Z,9.90
2022-09-28T17:50:34.636Z,10.47
2022-09-28T17:53:06.040Z,12.33
2022-09-28T17:55:34.253Z,17.00
2022-09-28T17:58:01.767Z,16.60
2022-09-28T18:00:28.508Z,17.60
2022-09-28T18:02:55.892Z,17.97
2022-09-28T18:05:23.584Z,19.13
2022-09-28T18:07:50.845Z,55.13
2022-09-28T18:10:19.980Z,33.87
2022-09-28T18:12:47.059Z,20.43
2022-09-28T18:15:14.675Z,15.63
2022-09-28T18:17:41.565Z,12.33
2022-09-28T18:20:09.390Z,14.57
2022-09-28T18:22:36.858Z,11.83
2022-09-28T18:25:04.528Z,11.27
2022-09-28T18:27:31.378Z,16.13
2022-09-28T18:29:58.150Z,25.87
2022-09-28T18:32:26.161Z,27.97
2022-09-28T18:34:53.097Z,35.33
2022-09-28T18:37:21.443Z,43.13
2022-09-28T18:39:48.495Z,45.40
2022-09-28T18:42:15.253Z,38.80
2022-09-28T18:44:57.305Z,26.33
2022-09-28T18:47:31.926Z,25.97
2022-09-28T18:50:25.264Z,30.27
2022-09-28T18:52:52.801Z,15.27
2022-09-28T18:55:19.623Z,11.43
2022-09-28T18:57:47.018Z,11.13
2022-09-28T19:00:15.176Z,11.70
2022-09-28T19:02:42.107Z,14.17
2022-09-28T19:05:08.820Z,40.43
2022-09-28T19:07:35.533Z,27.90
2022-09-28T19:10:02.448Z,52.83
2022-09-28T19:12:29.372Z,22.97
2022-09-28T19:14:56.358Z,13.57
2022-09-28T19:17:23.008Z,19.33
2022-09-28T19:19:51.750Z,21.00
2022-09-28T19:22:18.228Z,50.37
2022-09-28T19:24:45.050Z,14.80
2022-09-28T19:27:11.983Z,18.10
2022-09-28T19:29:38.798Z,31.30
2022-09-28T19:32:05.474Z,27.07
2022-09-28T19:34:31.965Z,33.33
2022-09-28T19:36:58.660Z,42.73
2022-09-28T19:39:25.426Z,38.53
2022-09-28T19:41:52.733Z,39.23
2022-09-28T19:44:27.398Z,41.43
2022-09-28T19:46:55.677Z,53.33
2022-09-28T19:49:23.051Z,61.63
2022-09-28T19:52:11.451Z,76.77
2022-09-28T19:54:38.261Z,105.70
2022-09-28T19:57:09.045Z,111.40
2022-09-28T19:59:36.767Z,64.67
2022-09-28T20:02:04.044Z,45.20
2022-09-28T20:04:30.769Z,57.27
2022-09-28T20:06:57.317Z,43.67
2022-09-28T20:09:23.852Z,30.43
2022-09-28T20:11:51.968Z,27.93
2022-09-28T20:14:23.486Z,34.60
2022-09-28T20:16:52.694Z,41.90
2022-09-28T20:19:21.721Z,39.77
2022-09-28T20:21:48.489Z,31.20
2022-09-28T20:24:16.670Z,27.63
2022-09-28T20:26:43.487Z,22.33
2022-09-28T20:29:10.662Z,21.53
2022-09-28T20:31:37.544Z,15.00
2022-09-28T20:34:04.823Z,20.47
2022-09-28T20:36:32.149Z,18.27
2022-09-28T20:39:02.043Z,17.87
2022-09-28T20:41:30.757Z,18.83
2022-09-28T20:44:04.176Z,24.47
2022-09-28T20:46:32.147Z,36.13
2022-09-28T20:48:59.702Z,44.40
2022-09-28T20:51:26.619Z,43.90
2022-09-28T20:53:54.413Z,43.67
2022-09-28T20:56:22.071Z,36.67
2022-09-28T20:58:51.059Z,33.17
2022-09-28T21:01:24.914Z,19.10
2022-09-28T21:03:52.921Z,15.43
2022-09-28T21:06:20.358Z,15.00
2022-09-28T21:08:46.968Z,12.13
2022-09-28T21:11:13.996Z,12.83
2022-09-28T21:13:43.026Z,11.67
2022-09-28T21:16:11.079Z,14.70
2022-09-28T21:18:38.313Z,14.03
2022-09-28T21:21:05.586Z,11.47
2022-09-28T21:23:32.087Z,11.67
2022-09-28T21:26:02.160Z,13.60
2022-09-28T21:28:28.595Z,14.20
2022-09-28T21:30:55.229Z,12.03
2022-09-28T21:33:25.221Z,10.27
2022-09-28T21:35:51.652Z,13.80
2022-09-28T21:38:18.147Z,11.80
2022-09-28T21:40:44.700Z,11.93
2022-09-28T21:43:11.324Z,11.53
2022-09-28T21:45:38.643Z,13.43
2022-09-28T21:48:05.122Z,12.87
2022-09-28T21:50:31.545Z,14.63
2022-09-28T21:52:57.999Z,12.97
2022-09-28T21:55:24.438Z,15.97
2022-09-28T21:57:51.305Z,25.33
2022-09-28T22:00:19.432Z,48.43
2022-09-28T22:02:46.165Z,41.13
2022-09-28T22:05:13.152Z,61.23
2022-09-28T22:07:40.096Z,24.20
2022-09-28T22:10:07.547Z,21.33
2022-09-28T22:12:33.994Z,11.53
2022-09-28T22:15:00.458Z,11.07
2022-09-28T22:17:26.883Z,7.53
2022-09-28T22:19:53.402Z,8.63
2022-09-28T22:22:19.937Z,9.20
2022-09-28T22:24:46.352Z,10.40
2022-09-28T22:27:12.978Z,9.13
2022-09-28T22:29:39.456Z,7.47
2022-09-28T22:32:07.535Z,14.33
2022-09-28T22:34:34.067Z,16.60
2022-09-28T22:37:03.013Z,17.30
2022-09-28T22:39:32.221Z,14.07
2022-09-28T22:42:01.821Z,13.10
2022-09-28T22:44:28.273Z,15.90
2022-09-28T22:46:54.874Z,13.63
2022-09-28T22:49:21.921Z,11.43
2022-09-28T22:51:48.495Z,12.00
2022-09-28T22:54:16.456Z,16.43
2022-09-28T22:56:43.642Z,14.33
2022-09-28T22:59:11.591Z,15.00
2022-09-28T23:01:38.400Z,13.17
2022-09-28T23:04:04.893Z,15.10
2022-09-28T23:06:31.513Z,13.67
2022-09-28T23:08:58.110Z,14.13
2022-09-28T23:11:24.652Z,10.67
2022-09-28T23:13:51.591Z,11.13
2022-09-28T23:16:18.788Z,10.30
2022-09-28T23:18:45.267Z,9.13
2022-09-28T23:21:16.162Z,12.93
2022-09-28T23:23:43.319Z,15.00
2022-09-28T23:26:14.114Z,10.33
2022-09-28T23:28:40.627Z,13.70
2022-09-28T23:31:08.228Z,12.10
2022-09-28T23:33:34.717Z,9.77
2022-09-28T23:36:01.607Z,13.63
2022-09-28T23:38:28.038Z,13.03
2022-09-28T23:40:54.497Z,9.60
2022-09-28T23:43:20.984Z,12.63
2022-09-28T23:45:47.424Z,10.50
2022-09-28T23:48:15.102Z,11.77
2022-09-28T23:50:42.500Z,12.10
2022-09-28T23:53:08.924Z,8.90
2022-09-28T23:55:35.574Z,11.47
2022-09-28T23:58:02.010Z,8.37
